Hauptseite
METAR-TAF:

METAR-TAF

Flughäfen :

Mexicali, Mexiko

Breite: 32-37-50N, Länge: 115-14-30W, Höhe: 22 m

Beobachtung

Neuester Wetterbericht von vor 1 Stunde und 29 Minuten, um 22:46 UTC
Wind 7 kt aus Süd
Temperatur 42°C
Luftfeuchtigkeit 19%
Luftdruck 1005 hPa
Sichtweite: 16.1 km
Himmel klar

METAR: MMML 222246Z 18007KT 10SM SKC 42/14 A2969 RMK DSNT CB NW CI S

Zeit: 19:15 (00:15 UTC)

Prognose

Neuester Wetterbericht von vor 7 Stunden und 31 Minuten, um 16:44 UTC
Gültige Prognose vom 22 um 18 UTC bis 23 um 18 UTC
Wind 15 kt aus Süd/Südost
Sichtweite: 10 km
Himmel klar
Ab 23 um 0300 UTC
Wind kt aus Nord
Sichtweite: 10 km
Himmel klar

TAF: MMML 221644Z 2218/2318 16015KT P6SM SKC FM230300 00000KT P6SM SKC

Wetterbeobachtungen und Prognosen von mehr als 4000 Flughäfen (METAR und TAF Bericht).

Die verfügbaren Stationen werden durch gelbe und rote Markierungen auf der Karte dargestellt.

Führen Sie die Maus auf sie, um den Namen der Station zu sehen.

Darauf klicken, um die Beobachtung von Wetterbeobachtungen und Prognosen zu sehen.

Um die Karte zu ändern : klicken Sie auf den grünen Tasten mit einem schwarzen Kreuz Zum Vergrößern, auf den grünen Button mit einem Gedankenstrich zu verkleinern, oder auf die grünen Pfeile für benachbarte Karten.


METAR-TAF: